Farnham, Virginia
Current Conditions -  °F | °C
As of 5:15 AM on Monday 26 Jan 2015 (Local Time) from KXSA Reporting Station
Light Rain Light Rain  
Wind Chill: 39°   Ceiling: 3200
Heat Index: 39°   Visibility: 7mi
Dew Point: 36°   Wind: 0mph
Humidity: 86%   Direction: NA
Pressure: 29.77"   Gusts: NA
Location:  37.89°N, 76.62°W
Report Text: KXSA 261015Z AUTO 00000KT 7SM -RA SCT018 BKN032 OVC040 04/02 A2977 RMK AO2 T00410020
Loading
Personal Weather Stations






























Interactive Weather Map New forecast layout! Learn more

10-Day Weather Forecast

Advertisements
Track Severe Weather on mobile